Time;durP1;ratioP1;P1;durP2;ratioP2;P2;SDS_P1;SDS_P2;PMS_P1;PMS_P2;Temp;Humidity;BMP_temperature;BMP_pressure;BME280_temperature;BME280_humidity;BME280_pressure;Samples;Min_cycle;Max_cycle;Signal;HPM_P1;HPM_P2
2022/08/03 00:01:57;;;;;;;3.25;0.75;;;21.20;99.90;;;;;;5030263;28;20045;-40
2022/08/03 00:04:23;;;;;;;9.05;1.10;;;21.10;99.90;;;;;;5030489;28;20064;-40
2022/08/03 00:06:49;;;;;;;9.43;1.20;;;21.10;99.90;;;;;;5030000;28;20045;-43
2022/08/03 00:09:15;;;;;;;4.45;0.75;;;21.10;99.90;;;;;;5026205;28;20403;-38
2022/08/03 00:11:40;;;;;;;5.95;1.15;;;21.00;99.90;;;;;;5014310;28;20357;-40
2022/08/03 00:14:07;;;;;;;4.45;0.88;;;21.00;99.90;;;;;;5026676;28;20041;-38
2022/08/03 00:16:33;;;;;;;9.00;1.30;;;21.00;99.90;;;;;;5030099;28;20076;-40
2022/08/03 00:18:58;;;;;;;4.00;0.80;;;21.00;99.90;;;;;;5029864;28;20092;-39
2022/08/03 00:21:24;;;;;;;4.00;1.02;;;20.90;99.90;;;;;;5029300;28;20056;-37
2022/08/03 00:23:50;;;;;;;4.05;0.82;;;20.80;99.90;;;;;;5029792;28;20033;-38
2022/08/03 00:26:16;;;;;;;5.05;1.17;;;20.80;99.90;;;;;;5028643;28;20047;-41
2022/08/03 00:28:42;;;;;;;4.85;1.20;;;20.70;99.90;;;;;;5029797;28;20041;-38
2022/08/03 00:31:07;;;;;;;3.80;0.90;;;20.60;99.90;;;;;;5029800;28;20049;-40
2022/08/03 00:33:33;;;;;;;3.42;1.00;;;20.60;99.90;;;;;;5030067;28;20071;-38
2022/08/03 00:35:59;;;;;;;5.22;1.10;;;20.50;99.90;;;;;;5029632;28;20565;-37
2022/08/03 00:38:24;;;;;;;7.13;1.27;;;20.50;99.90;;;;;;5021258;28;20110;-38
2022/08/03 00:40:50;;;;;;;4.80;1.10;;;20.40;99.90;;;;;;5013440;28;20112;-38
2022/08/03 00:43:16;;;;;;;8.23;1.70;;;20.40;99.90;;;;;;5024826;28;20737;-38
2022/08/03 00:45:42;;;;;;;10.32;1.38;;;20.40;99.90;;;;;;5030135;28;20052;-41
2022/08/03 00:48:09;;;;;;;3.40;1.05;;;20.30;99.90;;;;;;5029781;28;20045;-38
2022/08/03 00:50:39;;;;;;;3.20;1.02;;;20.20;99.90;;;;;;5029864;28;20033;-37
2022/08/03 00:53:06;;;;;;;4.63;0.88;;;20.20;99.90;;;;;;5028355;28;20049;-37
2022/08/03 00:55:32;;;;;;;4.53;1.05;;;20.20;99.90;;;;;;5022993;28;20113;-38
2022/08/03 00:58:00;;;;;;;4.63;0.98;;;20.10;99.90;;;;;;5010206;28;20182;-39
2022/08/03 01:00:26;;;;;;;6.05;1.10;;;20.10;99.90;;;;;;5014407;28;20042;-39
2022/08/03 01:02:52;;;;;;;3.95;1.05;;;20.10;99.90;;;;;;5010604;28;20067;-38
2022/08/03 01:05:19;;;;;;;4.82;1.48;;;20.00;99.90;;;;;;5011690;28;20041;-38
2022/08/03 01:08:18;;;;;;;2.58;1.15;;;20.00;99.90;;;;;;5011550;28;20103;-38
2022/08/03 01:11:28;;;;;;;7.63;1.45;;;19.90;99.90;;;;;;5011693;28;20034;-38
2022/08/03 01:14:10;;;;;;;4.40;0.88;;;19.90;99.90;;;;;;5005788;28;20073;-42
2022/08/03 01:16:53;;;;;;;5.93;1.02;;;19.90;99.90;;;;;;5029996;28;20049;-36
2022/08/03 01:19:43;;;;;;;3.50;1.00;;;19.90;99.90;;;;;;5006524;28;20050;-37
2022/08/03 01:22:30;;;;;;;4.45;1.30;;;19.90;99.90;;;;;;5007082;28;20073;-37
2022/08/03 01:25:08;;;;;;;5.60;1.13;;;19.80;99.90;;;;;;5016122;28;20122;-38
2022/08/03 01:27:55;;;;;;;4.43;0.98;;;19.70;99.90;;;;;;5016739;28;20091;-38
2022/08/03 01:30:28;;;;;;;8.77;1.38;;;19.60;99.90;;;;;;5010283;28;20775;-38
2022/08/03 01:33:04;;;;;;;5.50;1.30;;;19.60;99.90;;;;;;5015914;28;20045;-38
2022/08/03 01:35:49;;;;;;;5.35;1.20;;;19.60;99.90;;;;;;5017499;28;20499;-38
2022/08/03 01:38:23;;;;;;;6.47;1.30;;;19.60;99.90;;;;;;5013074;28;20065;-36
2022/08/03 01:40:52;;;;;;;5.10;1.50;;;19.50;99.90;;;;;;5016947;28;20041;-37
2022/08/03 01:43:22;;;;;;;6.88;1.20;;;19.50;99.90;;;;;;5022552;28;20041;-38
2022/08/03 01:45:50;;;;;;;5.30;1.17;;;19.50;99.90;;;;;;5014880;28;20045;-38
2022/08/03 01:48:17;;;;;;;3.45;1.30;;;19.50;99.90;;;;;;5022117;28;20046;-38
2022/08/03 01:50:45;;;;;;;4.22;1.10;;;19.40;99.90;;;;;;5015051;28;20115;-38
2022/08/03 01:53:14;;;;;;;6.30;1.30;;;19.40;99.90;;;;;;5015319;28;20116;-40
2022/08/03 01:55:42;;;;;;;6.90;1.20;;;19.40;99.90;;;;;;5016161;28;20430;-37
2022/08/03 01:58:08;;;;;;;5.97;1.38;;;19.30;99.90;;;;;;5016923;28;20120;-37
2022/08/03 02:00:39;;;;;;;6.55;1.10;;;19.30;99.90;;;;;;5018374;28;20112;-38
2022/08/03 02:03:06;;;;;;;3.97;1.00;;;19.20;99.90;;;;;;5015891;28;20054;-38
2022/08/03 02:05:32;;;;;;;6.28;1.33;;;19.20;99.90;;;;;;5024979;28;20044;-38
2022/08/03 02:08:02;;;;;;;4.50;1.45;;;19.20;99.90;;;;;;5016868;28;20046;-38
2022/08/03 02:10:29;;;;;;;5.28;1.27;;;19.20;99.90;;;;;;5017337;28;20045;-40
2022/08/03 02:12:58;;;;;;;4.22;0.90;;;19.10;99.90;;;;;;5019410;28;20054;-37
2022/08/03 02:15:25;;;;;;;3.80;1.20;;;19.10;99.90;;;;;;5015685;28;20078;-38
2022/08/03 02:17:53;;;;;;;4.20;1.00;;;19.10;99.90;;;;;;5018993;28;20082;-39
2022/08/03 02:20:20;;;;;;;5.38;0.85;;;19.10;99.90;;;;;;5019077;28;20061;-38
2022/08/03 02:22:46;;;;;;;4.00;1.20;;;19.10;99.90;;;;;;5025889;28;20418;-37
2022/08/03 02:25:13;;;;;;;5.78;1.00;;;19.10;99.90;;;;;;5025708;28;20057;-38
2022/08/03 02:27:46;;;;;;;7.40;1.15;;;19.10;99.90;;;;;;5020345;28;20104;-40
2022/08/03 02:30:13;;;;;;;4.13;1.10;;;19.00;99.90;;;;;;5021868;28;20077;-37
2022/08/03 02:32:41;;;;;;;5.20;1.00;;;19.00;99.90;;;;;;5018578;28;20110;-38
2022/08/03 02:35:11;;;;;;;6.82;1.10;;;19.00;99.90;;;;;;5023767;28;20044;-38
2022/08/03 02:37:43;;;;;;;5.47;1.10;;;18.90;99.90;;;;;;5016430;28;20037;-38
2022/08/03 02:40:11;;;;;;;4.97;1.10;;;18.90;99.90;;;;;;5016103;28;20079;-40
2022/08/03 02:42:39;;;;;;;7.10;0.80;;;18.90;99.90;;;;;;5014844;28;20128;-40
2022/08/03 02:45:11;;;;;;;3.60;0.90;;;18.90;99.90;;;;;;5019636;28;20048;-40
2022/08/03 02:47:40;;;;;;;4.65;1.00;;;18.90;99.90;;;;;;5016988;28;20041;-37
2022/08/03 02:50:11;;;;;;;2.72;0.73;;;18.90;99.90;;;;;;5016878;28;20045;-37
2022/08/03 02:52:38;;;;;;;5.68;0.80;;;18.90;99.90;;;;;;5012427;28;20030;-38
2022/08/03 02:55:08;;;;;;;5.63;0.90;;;18.90;99.90;;;;;;5023826;28;20107;-38
2022/08/03 02:57:36;;;;;;;4.85;0.95;;;18.80;99.90;;;;;;5014743;28;20034;-38
2022/08/03 03:00:04;;;;;;;5.45;0.90;;;18.80;99.90;;;;;;5012410;28;20049;-37
2022/08/03 03:02:30;;;;;;;5.32;1.08;;;18.80;99.90;;;;;;5021647;28;20143;-40
2022/08/03 03:04:58;;;;;;;2.83;0.85;;;18.80;99.90;;;;;;5018581;28;20061;-37
2022/08/03 03:07:25;;;;;;;2.72;0.88;;;18.80;99.90;;;;;;5022021;28;20515;-38
2022/08/03 03:09:52;;;;;;;5.80;1.15;;;18.80;99.90;;;;;;5017681;28;20444;-38
2022/08/03 03:12:19;;;;;;;7.03;1.05;;;18.70;99.90;;;;;;5011790;28;20080;-38
2022/08/03 03:14:45;;;;;;;5.07;1.20;;;18.70;99.90;;;;;;5016269;28;20073;-37
2022/08/03 03:17:13;;;;;;;5.78;0.90;;;18.70;99.90;;;;;;5011035;28;20095;-38
2022/08/03 03:19:40;;;;;;;6.05;1.25;;;18.70;99.90;;;;;;5018827;28;20052;-38
2022/08/03 03:22:07;;;;;;;3.67;1.10;;;18.70;99.90;;;;;;5026251;28;20049;-37
2022/08/03 03:24:34;;;;;;;6.35;1.13;;;18.70;99.90;;;;;;5015369;28;20464;-38
2022/08/03 03:27:00;;;;;;;3.92;1.15;;;18.60;99.90;;;;;;5008537;28;20189;-36
2022/08/03 03:29:26;;;;;;;5.10;1.08;;;18.60;99.90;;;;;;5015072;28;20143;-36
2022/08/03 03:31:52;;;;;;;9.73;1.35;;;18.60;99.90;;;;;;5020984;28;20033;-35
2022/08/03 03:34:18;;;;;;;3.88;1.17;;;18.60;99.90;;;;;;5018861;28;20056;-38
2022/08/03 03:36:44;;;;;;;4.78;1.15;;;18.60;99.90;;;;;;5016727;28;20033;-37
2022/08/03 03:39:11;;;;;;;6.10;1.00;;;18.60;99.90;;;;;;5021157;28;20078;-38
2022/08/03 03:41:36;;;;;;;5.80;1.10;;;18.60;99.90;;;;;;5014624;28;20042;-37
2022/08/03 03:44:02;;;;;;;6.03;1.13;;;18.50;99.90;;;;;;5014907;28;20099;-36
2022/08/03 03:46:28;;;;;;;5.75;0.90;;;18.50;99.90;;;;;;5010315;28;20471;-37
2022/08/03 03:48:54;;;;;;;5.95;1.20;;;18.50;99.90;;;;;;5018204;28;20463;-37
2022/08/03 03:51:19;;;;;;;3.42;0.95;;;18.50;99.90;;;;;;5015955;28;20825;-45
2022/08/03 03:53:56;;;;;;;3.28;0.93;;;18.50;99.90;;;;;;5018432;28;20033;-37
2022/08/03 03:56:22;;;;;;;6.22;1.40;;;18.50;99.90;;;;;;5010645;28;20034;-37
2022/08/03 03:58:48;;;;;;;2.70;0.70;;;18.50;99.90;;;;;;5016975;28;20049;-38
2022/08/03 04:01:14;;;;;;;6.65;1.40;;;18.50;99.90;;;;;;5018406;28;20045;-37
2022/08/03 04:03:40;;;;;;;8.27;1.20;;;18.50;99.90;;;;;;5015092;28;20037;-38
2022/08/03 04:11:39;;;;;;;7.70;1.35;;;18.50;99.90;;;;;;5017286;28;20042;-38
2022/08/03 04:14:23;;;;;;;6.43;1.40;;;18.50;99.90;;;;;;5013160;28;20046;-37
2022/08/03 04:17:10;;;;;;;7.13;1.33;;;18.50;99.90;;;;;;5008808;28;20042;-38
2022/08/03 04:19:41;;;;;;;5.32;1.38;;;18.50;99.90;;;;;;5015898;28;20121;-39
2022/08/03 04:22:10;;;;;;;5.65;1.42;;;18.40;99.90;;;;;;5014449;28;20069;-37
2022/08/03 04:24:45;;;;;;;7.10;1.63;;;18.40;99.90;;;;;;5022547;28;20045;-36
2022/08/03 04:27:14;;;;;;;4.82;1.40;;;18.40;99.90;;;;;;5010756;28;20053;-38
2022/08/03 04:29:44;;;;;;;8.63;1.48;;;18.40;99.90;;;;;;5018879;28;20086;-37
2022/08/03 04:32:11;;;;;;;6.10;1.45;;;18.40;99.90;;;;;;5016106;28;20343;-38
2022/08/03 04:34:37;;;;;;;6.70;1.75;;;18.30;99.90;;;;;;5018714;28;20049;-38
2022/08/03 04:37:10;;;;;;;5.80;1.48;;;18.30;99.90;;;;;;5019678;28;20056;-37
2022/08/03 04:39:37;;;;;;;4.53;1.50;;;18.30;99.90;;;;;;5011137;28;20340;-39
2022/08/03 04:42:07;;;;;;;5.88;1.48;;;18.40;99.90;;;;;;5013599;28;20033;-36
2022/08/03 04:44:39;;;;;;;11.55;1.60;;;18.40;99.90;;;;;;5020371;28;20199;-37
2022/08/03 04:47:06;;;;;;;8.75;1.65;;;18.40;99.90;;;;;;5027675;28;20099;-37
2022/08/03 04:49:31;;;;;;;7.13;1.55;;;18.40;99.90;;;;;;5011908;28;20157;-37
2022/08/03 04:51:57;;;;;;;3.72;1.23;;;18.40;99.90;;;;;;5014376;28;20084;-38
2022/08/03 04:54:23;;;;;;;4.43;1.35;;;18.50;99.90;;;;;;5012699;28;20126;-38
2022/08/03 04:56:49;;;;;;;6.60;1.08;;;18.50;99.90;;;;;;5019895;28;20042;-37
2022/08/03 04:59:16;;;;;;;6.00;1.38;;;18.50;99.90;;;;;;5013332;28;20030;-38
2022/08/03 05:01:42;;;;;;;6.85;1.52;;;18.50;99.90;;;;;;5017654;28;20042;-37
2022/08/03 05:04:08;;;;;;;4.65;1.38;;;18.60;99.90;;;;;;5011812;28;20410;-38
2022/08/03 05:06:34;;;;;;;7.03;1.92;;;18.60;99.90;;;;;;5013872;28;20099;-37
2022/08/03 05:08:59;;;;;;;8.27;2.20;;;18.70;99.90;;;;;;5020335;28;20441;-36
2022/08/03 05:11:25;;;;;;;9.10;1.75;;;18.70;99.90;;;;;;5016947;28;20037;-37
2022/08/03 05:13:51;;;;;;;6.55;1.60;;;18.80;99.90;;;;;;5017234;28;20048;-37
2022/08/03 05:16:17;;;;;;;6.88;2.08;;;18.80;99.90;;;;;;5020409;28;20037;-36
2022/08/03 05:18:43;;;;;;;6.32;2.47;;;18.90;99.90;;;;;;5013072;28;20183;-37
2022/08/03 05:21:09;;;;;;;10.43;2.05;;;18.90;99.90;;;;;;5020205;28;20050;-38
2022/08/03 05:23:36;;;;;;;9.77;1.88;;;19.00;99.90;;;;;;5022142;28;20038;-38
2022/08/03 05:26:02;;;;;;;10.60;2.03;;;19.00;99.90;;;;;;5016525;28;20084;-35
2022/08/03 05:28:28;;;;;;;6.93;1.55;;;19.10;99.90;;;;;;5022742;28;20045;-39
2022/08/03 05:30:53;;;;;;;5.43;1.63;;;19.20;99.90;;;;;;5023172;28;20025;-38
2022/08/03 05:33:19;;;;;;;5.25;1.95;;;19.20;99.90;;;;;;5015020;28;20042;-36
2022/08/03 05:35:45;;;;;;;7.70;1.48;;;19.30;99.90;;;;;;5019168;28;20147;-38
2022/08/03 05:38:11;;;;;;;7.20;1.88;;;19.30;99.90;;;;;;5018524;28;20510;-38
2022/08/03 05:40:36;;;;;;;5.95;1.70;;;19.40;99.90;;;;;;5013763;28;20041;-38
2022/08/03 05:43:02;;;;;;;5.90;1.90;;;19.50;99.90;;;;;;5014185;28;20056;-35
2022/08/03 05:45:28;;;;;;;8.80;2.10;;;19.60;99.90;;;;;;5021035;28;20033;-38
2022/08/03 05:47:53;;;;;;;9.85;2.03;;;19.60;99.90;;;;;;5033547;28;20376;-38
2022/08/03 05:50:19;;;;;;;5.35;1.85;;;19.60;99.90;;;;;;5015636;28;20482;-38
2022/08/03 05:52:45;;;;;;;7.00;2.40;;;19.60;99.90;;;;;;5014380;28;20061;-38
2022/08/03 05:55:12;;;;;;;8.10;1.98;;;19.70;99.90;;;;;;5016394;28;20042;-37
2022/08/03 05:57:38;;;;;;;9.32;2.13;;;19.70;99.90;;;;;;5022982;28;20045;-38
2022/08/03 06:00:06;;;;;;;8.15;2.10;;;19.80;99.90;;;;;;5020277;28;20188;-38
2022/08/03 06:02:32;;;;;;;8.68;1.95;;;19.80;99.90;;;;;;5018848;28;20041;-38
2022/08/03 06:04:57;;;;;;;7.07;2.10;;;19.90;99.90;;;;;;5014481;28;20049;-38
2022/08/03 06:07:23;;;;;;;10.75;2.30;;;20.00;99.90;;;;;;5014870;28;20034;-40
2022/08/03 06:09:49;;;;;;;11.40;2.60;;;20.00;99.90;;;;;;5021235;28;20089;-38
2022/08/03 06:12:15;;;;;;;12.23;2.75;;;20.00;99.90;;;;;;5014736;28;20046;-38
2022/08/03 06:14:41;;;;;;;9.18;1.90;;;20.10;99.90;;;;;;5017293;28;20124;-38
2022/08/03 06:17:07;;;;;;;5.43;1.90;;;20.10;99.90;;;;;;5016748;28;20076;-36
2022/08/03 06:19:32;;;;;;;7.35;1.85;;;20.20;99.90;;;;;;5015287;28;20129;-37
2022/08/03 06:21:59;;;;;;;5.63;1.65;;;20.20;99.90;;;;;;5016375;28;20104;-38
2022/08/03 06:24:25;;;;;;;7.28;2.22;;;20.30;99.90;;;;;;5019766;28;20497;-39
2022/08/03 06:26:51;;;;;;;11.27;2.22;;;20.30;99.90;;;;;;5019285;28;20449;-41
2022/08/03 06:29:16;;;;;;;10.35;2.30;;;20.30;99.90;;;;;;5014986;28;20045;-38
2022/08/03 06:31:42;;;;;;;10.98;2.42;;;20.30;99.90;;;;;;5015636;28;20059;-38
2022/08/03 06:34:07;;;;;;;8.88;2.33;;;20.30;99.90;;;;;;5019216;28;20045;-36
2022/08/03 06:36:33;;;;;;;8.88;2.25;;;20.30;99.90;;;;;;5020483;28;20065;-36
2022/08/03 06:38:59;;;;;;;10.98;2.33;;;20.30;99.90;;;;;;5010644;28;20099;-38
2022/08/03 06:41:26;;;;;;;8.07;2.17;;;20.30;99.90;;;;;;5014149;28;20046;-38
2022/08/03 06:43:52;;;;;;;8.93;2.40;;;20.40;99.90;;;;;;5018020;28;20041;-38
2022/08/03 06:46:18;;;;;;;8.52;2.38;;;20.40;99.90;;;;;;5015481;28;20041;-38
2022/08/03 06:48:44;;;;;;;9.90;2.40;;;20.40;99.90;;;;;;5017532;28;20045;-38
2022/08/03 06:51:10;;;;;;;10.65;1.52;;;20.50;99.90;;;;;;5016059;28;20403;-38
2022/08/03 06:53:36;;;;;;;6.85;1.90;;;20.50;99.90;;;;;;5015622;28;20476;-38
2022/08/03 06:56:04;;;;;;;7.65;2.17;;;20.60;99.90;;;;;;5020405;28;20076;-37
2022/08/03 06:58:30;;;;;;;6.10;2.35;;;20.70;99.90;;;;;;5019651;28;20080;-38
2022/08/03 07:00:55;;;;;;;8.18;2.25;;;20.70;99.90;;;;;;5016453;28;20049;-38
2022/08/03 07:03:21;;;;;;;11.35;2.40;;;20.70;99.90;;;;;;5010349;28;20049;-36
2022/08/03 07:05:47;;;;;;;9.73;2.95;;;20.80;99.90;;;;;;5014350;28;20466;-36
2022/08/03 07:08:13;;;;;;;11.88;2.03;;;20.80;99.90;;;;;;5019191;28;20501;-38
2022/08/03 07:10:39;;;;;;;8.85;2.53;;;20.80;99.90;;;;;;5017981;28;20538;-38
2022/08/03 07:13:05;;;;;;;8.77;2.35;;;20.80;99.90;;;;;;5013286;28;20037;-38
2022/08/03 07:15:31;;;;;;;9.90;2.53;;;20.80;99.90;;;;;;5033458;28;20478;-37
2022/08/03 07:17:57;;;;;;;8.00;2.42;;;20.80;99.90;;;;;;5018033;28;20037;-38
2022/08/03 07:20:23;;;;;;;10.27;2.80;;;20.90;99.90;;;;;;5015692;28;20111;-38
2022/08/03 07:22:49;;;;;;;8.43;2.33;;;20.90;99.90;;;;;;5018013;28;20045;-38
2022/08/03 07:25:14;;;;;;;8.27;2.45;;;21.00;99.90;;;;;;5019509;28;20391;-41
2022/08/03 07:27:47;;;;;;;6.35;2.45;;;21.00;99.90;;;;;;5018588;28;20534;-38
2022/08/03 07:30:14;;;;;;;11.13;2.65;;;21.00;99.90;;;;;;5021657;28;20037;-39
2022/08/03 07:32:41;;;;;;;14.10;2.95;;;21.10;99.90;;;;;;5015291;28;20037;-38
2022/08/03 07:35:07;;;;;;;10.07;2.28;;;21.10;99.90;;;;;;5020543;28;20439;-38
2022/08/03 07:37:33;;;;;;;11.05;2.60;;;21.10;99.90;;;;;;5015000;28;20088;-34
2022/08/03 07:40:00;;;;;;;10.02;2.50;;;21.10;99.90;;;;;;5013198;28;20053;-38
2022/08/03 07:42:27;;;;;;;11.15;2.35;;;21.10;99.90;;;;;;5012767;28;20038;-38
2022/08/03 07:44:53;;;;;;;9.98;2.60;;;21.30;99.90;;;;;;5011408;28;20052;-38
2022/08/03 07:47:24;;;;;;;12.25;2.42;;;21.40;99.90;;;;;;5013910;28;20391;-38
2022/08/03 07:49:50;;;;;;;8.65;2.88;;;21.50;99.90;;;;;;5007076;28;20037;-36
2022/08/03 07:55:00;;;;;;;8.93;1.88;;;21.70;99.90;;;;;;5010419;28;20037;-37
2022/08/03 07:57:26;;;;;;;11.38;2.28;;;21.90;99.90;;;;;;5010071;28;20068;-38
2022/08/03 07:59:51;;;;;;;8.48;2.55;;;22.00;99.90;;;;;;5006012;28;20046;-38
2022/08/03 08:02:17;;;;;;;10.98;2.35;;;22.00;99.90;;;;;;5004961;28;20530;-38
2022/08/03 08:04:43;;;;;;;8.50;2.30;;;22.00;99.90;;;;;;5004011;28;20042;-38
2022/08/03 08:07:08;;;;;;;13.73;2.15;;;22.10;99.90;;;;;;5010507;28;20064;-38
2022/08/03 08:09:34;;;;;;;12.07;2.33;;;22.20;99.90;;;;;;5006354;28;20041;-38
2022/08/03 08:12:00;;;;;;;9.60;2.20;;;22.30;99.90;;;;;;5004549;28;20121;-36
2022/08/03 08:14:26;;;;;;;10.88;2.35;;;22.40;99.90;;;;;;5003919;28;20360;-38
2022/08/03 08:16:51;;;;;;;8.05;1.70;;;22.50;99.90;;;;;;5006569;28;20506;-35
2022/08/03 08:19:18;;;;;;;11.25;2.63;;;22.60;99.90;;;;;;5003184;28;20046;-37
2022/08/03 08:21:44;;;;;;;6.00;1.88;;;22.70;99.90;;;;;;5004725;28;20037;-37
2022/08/03 08:24:09;;;;;;;9.10;2.33;;;22.70;99.90;;;;;;5006611;28;20087;-38
2022/08/03 08:26:35;;;;;;;8.85;2.40;;;22.80;99.90;;;;;;5005555;28;20313;-35
2022/08/03 08:29:02;;;;;;;8.52;2.20;;;22.90;99.90;;;;;;5004235;28;20434;-37
2022/08/03 08:31:28;;;;;;;7.35;2.55;;;22.90;99.90;;;;;;5016470;28;20088;-38
2022/08/03 08:33:53;;;;;;;12.98;2.42;;;22.90;99.90;;;;;;5009955;28;20494;-37
2022/08/03 08:36:19;;;;;;;12.45;2.25;;;23.00;99.90;;;;;;5002515;28;20025;-38
2022/08/03 08:38:45;;;;;;;9.38;1.67;;;23.10;99.90;;;;;;5018109;28;20045;-38
2022/08/03 08:41:12;;;;;;;8.25;2.00;;;23.20;99.90;;;;;;5004211;28;20037;-38
2022/08/03 08:43:38;;;;;;;9.30;2.28;;;23.40;99.90;;;;;;5003056;28;20046;-38
2022/08/03 08:46:07;;;;;;;9.43;2.22;;;23.50;99.90;;;;;;5019070;28;20096;-37
2022/08/03 08:48:38;;;;;;;9.30;2.05;;;23.60;99.90;;;;;;5021796;28;20045;-38
2022/08/03 08:51:04;;;;;;;6.45;1.77;;;23.70;99.90;;;;;;5014243;28;20042;-37
2022/08/03 08:53:34;;;;;;;13.48;2.30;;;23.80;99.90;;;;;;5016788;28;20128;-38
2022/08/03 08:56:02;;;;;;;7.40;1.85;;;23.90;99.90;;;;;;5013879;28;20084;-38
2022/08/03 08:58:33;;;;;;;9.85;2.10;;;24.00;99.90;;;;;;5012138;28;20580;-38
2022/08/03 09:00:59;;;;;;;13.35;2.60;;;24.10;99.90;;;;;;5010211;28;20046;-38
2022/08/03 09:03:25;;;;;;;9.70;2.00;;;24.20;99.90;;;;;;5012469;28;20348;-38
2022/08/03 09:05:51;;;;;;;9.20;2.08;;;24.30;99.90;;;;;;5011519;28;20495;-36
2022/08/03 09:08:17;;;;;;;9.13;2.13;;;24.40;99.90;;;;;;5014877;28;20052;-39
2022/08/03 09:10:43;;;;;;;15.88;2.55;;;24.50;99.90;;;;;;5013754;28;20087;-40
2022/08/03 09:13:08;;;;;;;10.48;2.15;;;24.60;99.90;;;;;;5015877;28;20152;-38
2022/08/03 09:15:34;;;;;;;11.80;1.98;;;24.60;99.90;;;;;;5027365;28;20088;-38
2022/08/03 09:18:02;;;;;;;10.07;2.17;;;24.70;99.90;;;;;;5008131;28;20049;-35
2022/08/03 09:20:31;;;;;;;8.27;1.77;;;24.80;99.90;;;;;;5012402;28;20041;-38
2022/08/03 09:23:03;;;;;;;9.40;2.42;;;24.80;99.90;;;;;;5012096;28;20081;-41
2022/08/03 09:25:36;;;;;;;10.30;1.95;;;24.90;99.90;;;;;;5018871;28;20041;-40
2022/08/03 09:28:04;;;;;;;6.82;2.20;;;24.90;98.30;;;;;;5016816;28;20123;-39
2022/08/03 09:30:30;;;;;;;12.20;2.30;;;25.00;99.90;;;;;;5016443;28;20037;-39
2022/08/03 09:33:15;;;;;;;10.93;2.13;;;25.10;99.90;;;;;;5020782;28;20077;-39
2022/08/03 09:35:43;;;;;;;9.57;1.88;;;25.20;99.30;;;;;;5020590;28;20095;-38
2022/08/03 09:38:17;;;;;;;8.73;2.05;;;25.30;99.30;;;;;;5018121;28;20041;-41
2022/08/03 09:40:44;;;;;;;10.27;1.98;;;25.50;98.30;;;;;;5019089;28;20038;-41
2022/08/03 09:43:10;;;;;;;7.97;1.85;;;25.60;97.80;;;;;;5020252;28;20037;-40
2022/08/03 09:45:38;;;;;;;10.75;1.70;;;25.60;97.50;;;;;;5014352;28;20053;-39
2022/08/03 09:48:24;;;;;;;11.80;2.20;;;25.60;97.50;;;;;;5015751;28;20060;-38
2022/08/03 09:50:55;;;;;;;10.27;2.17;;;25.70;96.10;;;;;;5016545;28;20374;-40
2022/08/03 09:53:21;;;;;;;12.80;1.80;;;25.80;95.50;;;;;;5013836;28;21762;-41
2022/08/03 09:55:57;;;;;;;8.60;2.10;;;25.90;94.50;;;;;;5020014;28;20116;-39
2022/08/03 09:58:25;;;;;;;8.98;2.13;;;25.90;94.10;;;;;;5015801;28;20045;-39
2022/08/03 10:01:02;;;;;;;9.77;1.98;;;26.00;94.10;;;;;;5018935;28;20573;-40
2022/08/03 10:03:33;;;;;;;16.88;2.20;;;26.10;92.70;;;;;;5013187;28;20037;-39
2022/08/03 10:06:18;;;;;;;13.43;2.08;;;26.20;92.00;;;;;;5023831;28;20410;-39
2022/08/03 10:08:44;;;;;;;8.98;2.50;;;26.20;91.90;;;;;;5020435;28;20478;-40
2022/08/03 10:11:10;;;;;;;10.90;2.38;;;26.30;92.20;;;;;;5014336;28;20042;-41
2022/08/03 10:13:37;;;;;;;11.57;2.17;;;26.40;91.40;;;;;;5017235;28;20128;-39
2022/08/03 10:16:03;;;;;;;12.40;2.00;;;26.50;91.10;;;;;;5021341;28;20596;-38
2022/08/03 10:18:30;;;;;;;13.95;2.17;;;26.50;91.10;;;;;;5029363;28;20135;-40
2022/08/03 10:21:02;;;;;;;15.75;2.58;;;26.50;90.80;;;;;;5014500;28;20062;-40
2022/08/03 10:23:33;;;;;;;15.43;2.55;;;26.70;90.70;;;;;;5018143;28;20052;-42
2022/08/03 10:26:02;;;;;;;9.45;2.22;;;26.80;90.20;;;;;;5001865;28;20049;-40
2022/08/03 10:28:35;;;;;;;13.65;2.10;;;27.00;90.20;;;;;;5017164;28;20542;-42
2022/08/03 10:31:03;;;;;;;10.25;2.17;;;27.00;88.10;;;;;;5017522;28;20490;-39
2022/08/03 10:33:33;;;;;;;12.23;2.22;;;27.10;89.10;;;;;;5016792;28;20642;-42
2022/08/03 10:36:00;;;;;;;8.80;1.95;;;27.20;84.80;;;;;;5033017;28;20045;-42
2022/08/03 10:38:34;;;;;;;16.10;2.53;;;27.20;85.90;;;;;;5014113;28;21322;-42
2022/08/03 10:41:00;;;;;;;12.07;2.92;;;27.20;83.50;;;;;;5016345;28;20189;-38
2022/08/03 10:44:03;;;;;;;14.50;2.25;;;27.20;84.30;;;;;;5014167;28;20451;-38
2022/08/03 10:46:28;;;;;;;11.52;2.30;;;27.20;84.40;;;;;;5005499;28;20380;-40
2022/08/03 10:48:56;;;;;;;8.40;1.67;;;27.40;84.00;;;;;;5016200;28;20072;-40
2022/08/03 10:51:22;;;;;;;10.55;2.03;;;27.50;82.40;;;;;;5004898;28;20057;-40
2022/08/03 10:53:48;;;;;;;14.13;2.10;;;27.70;80.80;;;;;;5010065;28;20041;-39
2022/08/03 10:59:36;;;;;;;;;;;27.80;73.10;;;;;;5009706;28;20046;-39
2022/08/03 11:02:01;;;;;;;11.10;2.30;;;27.90;76.50;;;;;;5017583;28;20275;-39
2022/08/03 11:04:28;;;;;;;12.02;2.47;;;28.00;78.10;;;;;;5018478;28;20553;-41
2022/08/03 11:07:20;;;;;;;13.57;3.20;;;28.10;78.60;;;;;;5020003;28;20092;-39
2022/08/03 11:09:49;;;;;;;10.30;2.50;;;28.30;74.50;;;;;;5015569;28;20068;-41
2022/08/03 11:12:30;;;;;;;8.63;2.10;;;28.30;74.30;;;;;;5013057;28;20040;-37
2022/08/03 11:15:07;;;;;;;9.93;2.25;;;28.30;74.40;;;;;;5011788;28;20176;-40
2022/08/03 11:17:34;;;;;;;15.15;2.72;;;28.30;75.60;;;;;;5016691;28;20720;-38
2022/08/03 11:20:00;;;;;;;11.27;2.35;;;28.30;73.40;;;;;;5016656;28;20058;-38
2022/08/03 11:22:47;;;;;;;11.65;2.25;;;28.30;74.60;;;;;;5003385;28;20175;-40
2022/08/03 11:25:15;;;;;;;10.82;2.08;;;28.30;75.90;;;;;;5008071;28;20033;-37
2022/08/03 11:27:40;;;;;;;11.98;2.20;;;28.40;75.10;;;;;;5011090;28;20072;-42
2022/08/03 11:30:12;;;;;;;9.93;1.83;;;28.40;73.60;;;;;;5010306;28;20034;-40
2022/08/03 11:32:44;;;;;;;;;;;28.40;73.60;;;;;;5019181;28;20398;-42
2022/08/03 11:35:15;;;;;;;11.17;1.83;;;28.40;71.60;;;;;;5014467;28;19924;-40
2022/08/03 11:37:53;;;;;;;7.45;1.90;;;28.40;72.80;;;;;;5018841;28;20037;-40
2022/08/03 11:40:39;;;;;;;12.75;2.22;;;28.50;71.70;;;;;;5026264;28;20045;-42
2022/08/03 11:43:26;;;;;;;9.23;3.00;;;28.60;72.70;;;;;;5012998;28;20156;-40
2022/08/03 11:46:06;;;;;;;10.07;1.85;;;28.70;72.80;;;;;;5015946;28;20046;-40
2022/08/03 11:48:37;;;;;;;6.95;1.48;;;28.80;69.90;;;;;;5022995;28;20038;-40
2022/08/03 11:51:05;;;;;;;9.03;1.50;;;28.80;66.70;;;;;;5024110;28;20099;-39
2022/08/03 11:53:31;;;;;;;9.35;1.85;;;28.90;66.80;;;;;;5015007;28;20045;-40
2022/08/03 11:55:59;;;;;;;9.73;1.70;;;29.00;64.60;;;;;;5013169;28;20037;-40
2022/08/03 11:58:26;;;;;;;6.15;1.25;;;29.00;62.70;;;;;;5016499;28;20056;-38
2022/08/03 12:00:52;;;;;;;13.05;2.20;;;29.10;61.40;;;;;;5012206;28;20041;-40
2022/08/03 12:03:19;;;;;;;7.38;1.60;;;29.10;60.80;;;;;;5015715;28;20080;-39
2022/08/03 12:05:46;;;;;;;8.77;1.42;;;29.10;63.60;;;;;;5013175;28;20484;-38
2022/08/03 12:08:14;;;;;;;9.52;1.75;;;29.10;62.90;;;;;;5016552;28;20087;-40
2022/08/03 12:10:46;;;;;;;11.65;2.25;;;29.10;62.80;;;;;;5013692;28;20045;-42
2022/08/03 12:13:11;;;;;;;7.38;1.55;;;29.10;62.70;;;;;;5015738;28;20037;-39
2022/08/03 12:15:37;;;;;;;16.05;2.53;;;29.10;62.70;;;;;;5011472;28;20033;-41
2022/08/03 12:18:13;;;;;;;10.80;2.10;;;29.10;63.10;;;;;;4993164;28;20034;-39
2022/08/03 12:20:38;;;;;;;10.30;1.58;;;29.10;65.00;;;;;;5016596;28;20081;-40
2022/08/03 12:23:05;;;;;;;10.23;2.30;;;29.20;62.10;;;;;;4996915;28;20081;-40
2022/08/03 12:25:33;;;;;;;8.32;1.80;;;29.30;61.50;;;;;;5012743;28;20054;-40
2022/08/03 12:28:33;;;;;;;9.30;1.60;;;29.30;60.80;;;;;;5020224;28;20115;-40
2022/08/03 12:31:05;;;;;;;6.70;1.77;;;29.30;61.90;;;;;;5008532;28;20068;-41
2022/08/03 12:33:32;;;;;;;9.90;1.80;;;29.50;60.70;;;;;;5013814;28;20104;-38
2022/08/03 12:36:08;;;;;;;9.10;1.90;;;29.60;61.00;;;;;;5011454;28;20037;-40
2022/08/03 12:38:37;;;;;;;16.08;1.70;;;29.70;59.30;;;;;;5014385;28;20041;-37
2022/08/03 12:41:07;;;;;;;6.65;1.25;;;29.70;58.10;;;;;;5015197;28;20042;-39
2022/08/03 12:43:34;;;;;;;8.57;1.70;;;29.80;58.00;;;;;;5012163;28;20050;-33
2022/08/03 12:46:17;;;;;;;11.07;2.55;;;29.90;56.50;;;;;;5014334;28;20045;-38
2022/08/03 12:49:09;;;;;;;12.05;2.47;;;30.00;56.50;;;;;;5008411;28;20484;-39
2022/08/03 12:51:58;;;;;;;14.13;1.65;;;30.00;59.40;;;;;;5015317;28;20045;-40
2022/08/03 12:54:28;;;;;;;5.78;1.75;;;30.10;59.30;;;;;;5020070;28;21725;-39
2022/08/03 12:57:10;;;;;;;13.07;2.40;;;30.10;56.80;;;;;;5011452;28;20140;-39
2022/08/03 12:59:47;;;;;;;9.60;2.13;;;30.20;55.40;;;;;;5006210;28;20728;-41
2022/08/03 13:02:24;;;;;;;13.05;2.88;;;30.00;55.10;;;;;;5013788;28;20538;-41
2022/08/03 13:04:52;;;;;;;11.43;2.72;;;30.00;57.30;;;;;;5012159;28;20034;-41
2022/08/03 13:07:18;;;;;;;10.95;2.28;;;30.00;57.80;;;;;;5010451;28;20518;-40